createdAt,value
2022-11-05T00:00:03.495Z,75.70
2022-11-05T00:02:46.447Z,75.50
2022-11-05T00:05:37.332Z,75.60
2022-11-05T00:08:23.267Z,75.60
2022-11-05T00:10:51.143Z,75.90
2022-11-05T00:13:36.529Z,76.00
2022-11-05T00:16:35.014Z,75.80
2022-11-05T00:19:09.926Z,75.40
2022-11-05T00:21:56.466Z,74.80
2022-11-05T00:24:53.588Z,74.50
2022-11-05T00:27:21.462Z,74.50
2022-11-05T00:29:49.370Z,74.60
2022-11-05T00:32:18.600Z,74.80
2022-11-05T00:34:46.488Z,75.30
2022-11-05T00:37:14.366Z,75.30
2022-11-05T00:39:42.270Z,75.20
2022-11-05T00:42:27.639Z,75.30
2022-11-05T00:45:04.814Z,75.30
2022-11-05T00:47:52.342Z,75.40
2022-11-05T00:50:21.067Z,75.90
2022-11-05T00:52:57.829Z,75.60
2022-11-05T00:55:28.129Z,75.60
2022-11-05T00:57:56.128Z,75.60
2022-11-05T01:00:25.528Z,75.80
2022-11-05T01:02:54.947Z,76.20
2022-11-05T01:05:22.948Z,76.00
2022-11-05T01:07:50.832Z,75.60
2022-11-05T01:10:18.884Z,75.30
2022-11-05T01:12:46.776Z,74.80
2022-11-05T01:15:15.105Z,74.40
2022-11-05T01:17:43.011Z,74.30
2022-11-05T01:20:12.787Z,74.50
2022-11-05T01:22:40.662Z,74.60
2022-11-05T01:25:09.918Z,74.80
2022-11-05T01:27:37.963Z,75.40
2022-11-05T01:30:06.998Z,75.30
2022-11-05T01:32:35.486Z,75.20
2022-11-05T01:35:03.522Z,75.20
2022-11-05T01:37:32.786Z,75.30
2022-11-05T01:40:00.662Z,75.50
2022-11-05T01:42:29.248Z,75.70
2022-11-05T01:45:02.336Z,75.60
2022-11-05T01:47:40.275Z,75.50
2022-11-05T01:50:19.356Z,75.50
2022-11-05T01:52:48.632Z,75.60
2022-11-05T01:55:16.719Z,76.00
2022-11-05T01:57:44.594Z,75.90
2022-11-05T02:00:13.705Z,75.60
2022-11-05T02:02:41.620Z,75.20
2022-11-05T02:05:11.060Z,74.70
2022-11-05T02:07:38.977Z,74.30
2022-11-05T02:10:09.728Z,74.30
2022-11-05T02:12:38.834Z,74.30
2022-11-05T02:15:07.582Z,74.60
2022-11-05T02:17:40.628Z,74.80
2022-11-05T02:20:40.538Z,75.30
2022-11-05T02:23:21.292Z,75.20
2022-11-05T02:26:04.685Z,75.10
2022-11-05T02:28:46.930Z,75.20
2022-11-05T02:31:17.657Z,75.30
2022-11-05T02:33:48.108Z,75.70
2022-11-05T02:36:21.952Z,75.60
2022-11-05T02:38:52.264Z,75.30
2022-11-05T02:41:23.756Z,75.00
2022-11-05T02:43:59.107Z,74.90
2022-11-05T02:46:35.006Z,74.80
2022-11-05T02:49:06.796Z,75.10
2022-11-05T02:51:36.386Z,75.00
2022-11-05T02:54:07.001Z,75.00
2022-11-05T02:56:36.108Z,75.10
2022-11-05T02:59:04.139Z,75.10
2022-11-05T03:01:33.663Z,75.50
2022-11-05T03:04:02.055Z,75.50
2022-11-05T03:06:42.870Z,75.40
2022-11-05T03:09:21.638Z,75.40
2022-11-05T03:11:54.425Z,75.40
2022-11-05T03:14:25.492Z,75.60
2022-11-05T03:16:58.274Z,75.90
2022-11-05T03:19:29.669Z,75.60
2022-11-05T03:21:58.859Z,75.30
2022-11-05T03:24:28.491Z,74.70
2022-11-05T03:26:57.755Z,74.30
2022-11-05T03:29:27.828Z,74.10
2022-11-05T03:31:57.882Z,74.20
2022-11-05T03:34:27.852Z,74.30
2022-11-05T03:36:56.622Z,74.50
2022-11-05T03:39:28.094Z,75.00
2022-11-05T03:41:55.988Z,75.10
2022-11-05T03:44:26.224Z,75.00
2022-11-05T03:46:54.562Z,75.00
2022-11-05T03:49:26.081Z,75.20
2022-11-05T03:51:56.139Z,75.30
2022-11-05T03:54:24.026Z,75.60
2022-11-05T03:56:56.912Z,75.50
2022-11-05T03:59:24.795Z,75.10
2022-11-05T04:01:52.770Z,74.90
2022-11-05T04:04:20.796Z,74.80
2022-11-05T04:07:03.950Z,75.10
2022-11-05T04:09:49.323Z,75.00
2022-11-05T04:12:34.839Z,75.00
2022-11-05T04:15:02.878Z,75.00
2022-11-05T04:17:29.802Z,75.20
2022-11-05T04:20:15.144Z,75.20
2022-11-05T04:23:02.054Z,75.60
2022-11-05T04:25:29.919Z,75.60
2022-11-05T04:28:00.111Z,75.10
2022-11-05T04:30:27.207Z,74.90
2022-11-05T04:32:59.305Z,74.80
2022-11-05T04:35:27.474Z,75.10
2022-11-05T04:37:56.691Z,75.00
2022-11-05T04:40:24.685Z,74.90
2022-11-05T04:42:54.163Z,74.80
2022-11-05T04:45:22.127Z,75.00
2022-11-05T04:47:50.043Z,75.10
2022-11-05T04:50:18.030Z,75.50
2022-11-05T04:52:45.892Z,75.20
2022-11-05T04:55:15.477Z,75.10
2022-11-05T04:57:43.510Z,75.10
2022-11-05T05:00:11.977Z,75.20
2022-11-05T05:02:40.128Z,75.60
2022-11-05T05:05:08.159Z,75.80
2022-11-05T05:07:36.324Z,75.40
2022-11-05T05:10:04.377Z,75.80
2022-11-05T05:12:34.537Z,74.60
2022-11-05T05:15:02.429Z,74.40
2022-11-05T05:17:30.294Z,74.70
2022-11-05T05:20:15.612Z,74.60
2022-11-05T05:22:43.475Z,74.40
2022-11-05T05:25:11.349Z,74.40
2022-11-05T05:27:40.568Z,74.50
2022-11-05T05:30:10.177Z,74.70
2022-11-05T05:32:38.074Z,75.30
2022-11-05T05:35:06.754Z,75.00
2022-11-05T05:37:34.658Z,74.90
2022-11-05T05:40:03.022Z,74.80
2022-11-05T05:42:30.883Z,75.00
2022-11-05T05:45:00.134Z,75.20
2022-11-05T05:47:28.046Z,75.60
2022-11-05T05:49:55.918Z,75.10
2022-11-05T05:52:23.837Z,75.10
2022-11-05T05:54:51.750Z,75.10
2022-11-05T05:57:19.624Z,75.20
2022-11-05T05:59:47.510Z,75.60
2022-11-05T06:02:16.897Z,75.70
2022-11-05T06:04:44.936Z,75.40
2022-11-05T06:07:12.845Z,74.90
2022-11-05T06:09:40.770Z,74.40
2022-11-05T06:12:08.871Z,74.00
2022-11-05T06:14:36.753Z,73.70
2022-11-05T06:17:04.913Z,73.70
2022-11-05T06:19:34.183Z,73.90
2022-11-05T06:22:02.063Z,74.10
2022-11-05T06:24:29.953Z,74.70
2022-11-05T06:26:57.841Z,74.90
2022-11-05T06:29:25.732Z,74.60
2022-11-05T06:31:53.902Z,74.60
2022-11-05T06:34:21.773Z,74.80
2022-11-05T06:36:50.987Z,74.90
2022-11-05T06:39:19.084Z,75.40
2022-11-05T06:42:12.163Z,75.20
2022-11-05T06:44:34.823Z,74.90
2022-11-05T06:47:02.703Z,74.90
2022-11-05T06:49:30.572Z,75.00
2022-11-05T06:52:03.900Z,75.20
2022-11-05T06:54:32.261Z,75.60
2022-11-05T06:57:00.145Z,75.30
2022-11-05T06:59:28.069Z,74.80
2022-11-05T07:01:56.046Z,74.40
2022-11-05T07:04:23.966Z,74.00
2022-11-05T07:06:51.863Z,73.80
2022-11-05T07:09:21.116Z,73.90
2022-11-05T07:11:48.972Z,74.10
2022-11-05T07:14:16.879Z,74.30
2022-11-05T07:16:44.983Z,74.70
2022-11-05T07:19:12.979Z,74.90
2022-11-05T07:21:40.949Z,74.80
2022-11-05T07:24:09.469Z,74.70
2022-11-05T07:26:38.852Z,74.80
2022-11-05T07:29:06.756Z,74.90
2022-11-05T07:31:34.635Z,75.50
2022-11-05T07:34:02.651Z,75.30
2022-11-05T07:36:30.552Z,74.90
2022-11-05T07:39:00.591Z,74.50
2022-11-05T07:41:29.268Z,74.30
2022-11-05T07:43:58.527Z,74.30
2022-11-05T07:46:26.429Z,74.70
2022-11-05T07:48:54.305Z,74.50
2022-11-05T07:51:22.763Z,74.50
2022-11-05T07:53:50.642Z,74.50
2022-11-05T07:56:18.529Z,74.70
2022-11-05T07:58:46.398Z,75.10
2022-11-05T08:01:15.697Z,75.00
2022-11-05T08:03:43.732Z,74.90
2022-11-05T08:06:11.625Z,74.90
2022-11-05T08:08:40.842Z,75.00
2022-11-05T08:11:10.452Z,75.10
2022-11-05T08:13:38.491Z,75.50
2022-11-05T08:16:07.681Z,75.20
2022-11-05T08:18:36.904Z,74.90
2022-11-05T08:21:05.737Z,74.30
2022-11-05T08:23:33.886Z,74.00
2022-11-05T08:26:03.829Z,73.70
2022-11-05T08:28:31.744Z,73.70
2022-11-05T08:30:59.667Z,73.90
2022-11-05T08:33:27.932Z,74.10
2022-11-05T08:35:57.159Z,74.60
2022-11-05T08:38:25.081Z,74.70
2022-11-05T08:40:57.434Z,74.60
2022-11-05T08:43:25.507Z,74.70
2022-11-05T08:45:54.922Z,74.80
2022-11-05T08:48:22.803Z,74.80
2022-11-05T08:50:51.083Z,75.30
2022-11-05T08:53:20.410Z,75.20
2022-11-05T08:55:50.051Z,75.10
2022-11-05T08:58:18.001Z,75.10
2022-11-05T09:00:46.786Z,75.10
2022-11-05T09:03:15.216Z,75.50
2022-11-05T09:05:43.629Z,75.70
2022-11-05T09:08:12.560Z,75.20
2022-11-05T09:10:41.984Z,74.80
2022-11-05T09:13:16.549Z,74.50
2022-11-05T09:15:44.737Z,74.40
2022-11-05T09:18:13.350Z,74.60
2022-11-05T09:20:41.297Z,73.50
2022-11-05T09:23:09.929Z,73.80
2022-11-05T09:25:38.029Z,74.00
2022-11-05T09:28:16.226Z,74.10
2022-11-05T09:30:45.266Z,74.50
2022-11-05T09:33:13.375Z,74.90
2022-11-05T09:35:41.585Z,74.80
2022-11-05T09:38:09.449Z,74.90
2022-11-05T09:40:38.676Z,74.80
2022-11-05T09:43:06.563Z,74.90
2022-11-05T09:45:35.769Z,75.00
2022-11-05T09:48:06.618Z,74.80
2022-11-05T09:50:35.964Z,72.80
2022-11-05T09:53:03.838Z,72.40
2022-11-05T09:55:34.471Z,72.60
2022-11-05T09:58:03.545Z,73.00
2022-11-05T10:00:31.500Z,72.50
2022-11-05T10:03:05.186Z,72.40
2022-11-05T10:05:33.131Z,72.70
2022-11-05T10:08:04.550Z,73.00
2022-11-05T10:10:40.916Z,73.20
2022-11-05T10:13:14.676Z,73.20
2022-11-05T10:15:45.156Z,72.90
2022-11-05T10:18:17.515Z,73.20
2022-11-05T10:20:45.624Z,73.30
2022-11-05T10:23:15.234Z,73.40
2022-11-05T10:25:44.346Z,73.50
2022-11-05T10:28:15.222Z,73.10
2022-11-05T10:30:43.145Z,72.90
2022-11-05T10:33:11.920Z,72.60
2022-11-05T10:35:45.770Z,72.20
2022-11-05T10:38:14.781Z,71.70
2022-11-05T10:40:47.785Z,71.70
2022-11-05T10:43:18.238Z,72.10
2022-11-05T10:45:50.934Z,72.40
2022-11-05T10:48:44.521Z,72.40
2022-11-05T10:51:13.891Z,72.60
2022-11-05T10:53:42.751Z,72.40
2022-11-05T10:56:28.849Z,72.70
2022-11-05T10:58:57.688Z,73.00
2022-11-05T11:01:26.392Z,73.60
2022-11-05T11:04:04.736Z,73.00
2022-11-05T11:06:37.715Z,72.40
2022-11-05T11:09:07.560Z,72.40
2022-11-05T11:11:37.487Z,71.90
2022-11-05T11:14:07.085Z,71.90
2022-11-05T11:16:37.757Z,71.90
2022-11-05T11:19:05.708Z,72.20
2022-11-05T11:21:35.311Z,72.20
2022-11-05T11:24:06.442Z,71.90
2022-11-05T11:26:35.510Z,71.40
2022-11-05T11:29:08.731Z,71.40
2022-11-05T11:31:39.157Z,71.60
2022-11-05T11:34:08.145Z,71.70
2022-11-05T11:36:41.323Z,71.50
2022-11-05T11:39:13.255Z,71.80
2022-11-05T11:41:42.461Z,72.00
2022-11-05T11:44:13.201Z,72.10
2022-11-05T11:46:41.191Z,72.20
2022-11-05T11:49:13.591Z,72.20
2022-11-05T11:51:49.771Z,72.20
2022-11-05T11:54:20.605Z,72.40
2022-11-05T11:56:49.110Z,72.50
2022-11-05T11:59:40.438Z,72.50
2022-11-05T12:02:31.510Z,72.60
2022-11-05T12:05:11.567Z,72.50
2022-11-05T12:07:49.874Z,72.20
2022-11-05T12:10:27.996Z,71.70
2022-11-05T12:13:04.239Z,71.60
2022-11-05T12:15:38.110Z,71.90
2022-11-05T12:18:06.358Z,71.70
2022-11-05T12:20:41.434Z,71.70
2022-11-05T12:23:21.776Z,72.00
2022-11-05T12:25:52.900Z,72.20
2022-11-05T12:28:36.305Z,72.20
2022-11-05T12:31:06.857Z,72.50
2022-11-05T12:33:40.342Z,72.90
2022-11-05T12:36:15.529Z,72.50
2022-11-05T12:39:05.300Z,72.80
2022-11-05T12:41:34.815Z,73.00
2022-11-05T12:44:12.701Z,73.20
2022-11-05T12:46:44.176Z,73.80
2022-11-05T12:49:30.832Z,73.60
2022-11-05T12:52:08.354Z,73.20
2022-11-05T12:54:45.616Z,73.00
2022-11-05T12:57:14.099Z,72.70
2022-11-05T12:59:44.761Z,73.20
2022-11-05T13:02:17.948Z,73.20
2022-11-05T13:04:48.428Z,72.80
2022-11-05T13:07:19.378Z,73.00
2022-11-05T13:09:50.428Z,73.10
2022-11-05T13:12:19.599Z,73.30
2022-11-05T13:14:49.664Z,73.70
2022-11-05T13:17:18.602Z,73.40
2022-11-05T13:19:49.569Z,73.40
2022-11-05T13:22:26.346Z,73.50
2022-11-05T13:24:57.316Z,73.50
2022-11-05T13:27:39.638Z,73.40
2022-11-05T13:30:10.417Z,72.70
2022-11-05T13:32:39.429Z,72.70
2022-11-05T13:35:15.151Z,72.70
2022-11-05T13:38:01.676Z,72.50
2022-11-05T13:40:35.375Z,72.40
2022-11-05T13:43:10.938Z,72.20
2022-11-05T13:46:06.126Z,72.40
2022-11-05T13:48:50.412Z,72.70
2022-11-05T13:51:38.621Z,73.20
2022-11-05T13:54:36.904Z,73.50
2022-11-05T13:57:18.873Z,73.30
2022-11-05T14:00:01.704Z,73.40
2022-11-05T14:02:37.558Z,73.50
2022-11-05T14:05:05.788Z,73.90
2022-11-05T14:07:34.475Z,74.70
2022-11-05T14:10:06.562Z,73.80
2022-11-05T14:12:36.846Z,73.80
2022-11-05T14:15:08.470Z,73.80
2022-11-05T14:17:55.564Z,74.00
2022-11-05T14:20:40.061Z,74.50
2022-11-05T14:23:47.812Z,74.30
2022-11-05T14:26:17.912Z,73.80
2022-11-05T14:28:48.801Z,73.40
2022-11-05T14:32:02.594Z,73.00
2022-11-05T14:34:24.036Z,73.00
2022-11-05T14:37:19.892Z,73.00
2022-11-05T14:39:48.097Z,73.30
2022-11-05T14:42:17.543Z,73.50
2022-11-05T14:45:24.391Z,74.20
2022-11-05T14:47:54.061Z,74.00
2022-11-05T14:50:23.915Z,74.00
2022-11-05T14:52:53.021Z,74.00
2022-11-05T14:55:28.151Z,74.10
2022-11-05T14:58:21.418Z,74.30
2022-11-05T15:00:51.177Z,72.80
2022-11-05T15:03:47.455Z,72.60
2022-11-05T15:06:26.535Z,72.40
2022-11-05T15:09:20.202Z,72.70
2022-11-05T15:12:15.354Z,72.80
2022-11-05T15:14:51.678Z,72.80
2022-11-05T15:17:23.280Z,73.00
2022-11-05T15:19:51.169Z,73.20
2022-11-05T15:22:33.925Z,73.30
2022-11-05T15:25:01.872Z,73.50
2022-11-05T15:27:55.680Z,73.60
2022-11-05T15:30:24.516Z,73.50
2022-11-05T15:32:53.788Z,73.50
2022-11-05T15:35:24.750Z,73.50
2022-11-05T15:37:58.787Z,73.50
2022-11-05T15:40:30.978Z,73.60
2022-11-05T15:43:19.428Z,73.40
2022-11-05T15:46:02.312Z,73.00
2022-11-05T15:48:31.670Z,72.60
2022-11-05T15:50:59.605Z,72.50
2022-11-05T15:53:51.494Z,72.60
2022-11-05T15:56:25.930Z,72.60
2022-11-05T15:58:55.372Z,72.60
2022-11-05T16:01:24.498Z,72.80
2022-11-05T16:03:53.953Z,72.80
2022-11-05T16:06:28.940Z,72.80
2022-11-05T16:08:57.121Z,73.00
2022-11-05T16:11:25.999Z,73.00
2022-11-05T16:13:54.329Z,73.00
2022-11-05T16:16:33.012Z,73.10
2022-11-05T16:19:02.286Z,73.20
2022-11-05T16:21:30.180Z,73.20
2022-11-05T16:23:58.962Z,73.10
2022-11-05T16:29:23.715Z,72.30
2022-11-05T16:31:52.146Z,72.00
2022-11-05T16:34:26.928Z,72.20
2022-11-05T16:36:56.004Z,72.20
2022-11-05T16:39:23.919Z,72.10
2022-11-05T16:41:51.790Z,72.40
2022-11-05T16:44:19.729Z,72.50
2022-11-05T16:46:49.390Z,72.50
2022-11-05T16:49:17.457Z,72.70
2022-11-05T16:51:46.684Z,72.60
2022-11-05T16:54:14.575Z,72.80
2022-11-05T16:56:44.986Z,72.90
2022-11-05T16:59:13.145Z,72.70
2022-11-05T17:01:42.077Z,72.90
2022-11-05T17:04:10.145Z,73.00
2022-11-05T17:06:38.007Z,72.90
2022-11-05T17:09:07.286Z,72.90
2022-11-05T17:11:35.263Z,72.90
2022-11-05T17:14:03.175Z,73.00
2022-11-05T17:16:32.132Z,73.00
2022-11-05T17:19:00.050Z,73.10
2022-11-05T17:21:28.731Z,72.80
2022-11-05T17:23:56.607Z,72.50
2022-11-05T17:26:25.842Z,72.00
2022-11-05T17:28:53.735Z,71.60
2022-11-05T17:31:21.611Z,71.40
2022-11-05T17:33:49.497Z,71.50
2022-11-05T17:36:17.578Z,71.60
2022-11-05T17:38:45.479Z,71.90
2022-11-05T17:41:13.638Z,72.10
2022-11-05T17:43:42.898Z,72.20
2022-11-05T17:46:11.940Z,72.20
2022-11-05T17:48:40.121Z,72.40
2022-11-05T17:51:09.684Z,72.50
2022-11-05T17:53:37.695Z,72.50
2022-11-05T17:56:09.109Z,72.60
2022-11-05T17:58:36.989Z,72.70
2022-11-05T18:01:06.591Z,72.70
2022-11-05T18:03:34.584Z,72.70
2022-11-05T18:06:02.951Z,72.70
2022-11-05T18:08:30.878Z,72.80
2022-11-05T18:10:58.831Z,72.80
2022-11-05T18:13:26.714Z,72.70
2022-11-05T18:15:54.867Z,72.40
2022-11-05T18:18:24.117Z,71.90
2022-11-05T18:20:51.983Z,71.50
2022-11-05T18:23:19.890Z,71.20
2022-11-05T18:25:47.812Z,71.30
2022-11-05T18:28:15.831Z,71.50
2022-11-05T18:30:43.724Z,71.70
2022-11-05T18:33:11.855Z,71.80
2022-11-05T18:35:44.841Z,72.00
2022-11-05T18:38:12.770Z,72.00
2022-11-05T18:40:40.702Z,72.20
2022-11-05T18:43:08.656Z,72.10
2022-11-05T18:45:36.557Z,72.00
2022-11-05T18:48:04.999Z,72.20
2022-11-05T18:50:33.172Z,72.30
2022-11-05T18:53:02.544Z,72.00
2022-11-05T18:55:30.625Z,71.60
2022-11-05T18:57:58.508Z,71.40
2022-11-05T19:00:27.809Z,71.50
2022-11-05T19:02:56.122Z,71.70
2022-11-05T19:05:31.138Z,71.50
2022-11-05T19:07:59.034Z,71.40
2022-11-05T19:10:28.381Z,71.50
2022-11-05T19:12:56.433Z,71.70
2022-11-05T19:15:24.309Z,71.80
2022-11-05T19:17:52.193Z,71.70
2022-11-05T19:20:20.252Z,71.70
2022-11-05T19:22:48.152Z,71.80
2022-11-05T19:25:16.223Z,71.90
2022-11-05T19:27:45.479Z,71.90
2022-11-05T19:30:13.613Z,72.00
2022-11-05T19:32:41.501Z,71.90
2022-11-05T19:35:09.735Z,71.90
2022-11-05T19:37:37.642Z,71.50
2022-11-05T19:40:06.412Z,71.10
2022-11-05T19:42:34.316Z,70.90
2022-11-05T19:47:51.632Z,71.20
2022-11-05T19:50:19.568Z,71.00
2022-11-05T19:52:47.475Z,71.30
2022-11-05T19:55:15.433Z,71.50
2022-11-05T19:57:43.670Z,71.40
2022-11-05T20:00:14.277Z,71.50
2022-11-05T20:02:44.603Z,71.60
2022-11-05T20:05:12.614Z,71.60
2022-11-05T20:07:40.566Z,71.70
2022-11-05T20:10:09.074Z,71.70
2022-11-05T20:12:37.129Z,71.60
2022-11-05T20:15:05.860Z,71.80
2022-11-05T20:17:35.112Z,71.70
2022-11-05T20:20:04.111Z,71.40
2022-11-05T20:22:32.205Z,71.00
2022-11-05T20:25:00.088Z,70.90
2022-11-05T20:27:27.966Z,71.10
2022-11-05T20:29:55.845Z,71.10
2022-11-05T20:32:23.725Z,71.00
2022-11-05T20:34:52.954Z,71.90
2022-11-05T20:37:20.811Z,71.40
2022-11-05T20:39:48.723Z,71.40
2022-11-05T20:42:17.241Z,71.50
2022-11-05T20:44:45.312Z,71.60
2022-11-05T20:47:13.191Z,71.60
2022-11-05T20:49:41.289Z,71.70
2022-11-05T20:52:10.531Z,71.70
2022-11-05T20:54:38.452Z,71.70
2022-11-05T20:57:06.356Z,71.80
2022-11-05T20:59:34.253Z,71.60
2022-11-05T21:02:02.315Z,71.40
2022-11-05T21:04:30.445Z,71.00
2022-11-05T21:06:58.351Z,70.50
2022-11-05T21:09:27.778Z,70.10
2022-11-05T21:12:21.459Z,70.30
2022-11-05T21:14:49.552Z,70.50
2022-11-05T21:17:17.810Z,70.90
2022-11-05T21:19:45.696Z,71.00
2022-11-05T21:22:15.335Z,71.10
2022-11-05T21:24:44.590Z,71.10
2022-11-05T21:27:12.494Z,71.30
2022-11-05T21:29:40.575Z,71.40
2022-11-05T21:32:08.562Z,71.50
2022-11-05T21:34:36.455Z,71.50
2022-11-05T21:37:05.561Z,71.40
2022-11-05T21:39:34.779Z,71.50
2022-11-05T21:42:04.064Z,71.50
2022-11-05T21:44:31.953Z,71.60
2022-11-05T21:46:59.934Z,71.60
2022-11-05T21:49:27.848Z,71.70
2022-11-05T21:52:13.017Z,71.60
2022-11-05T21:54:58.293Z,71.20
2022-11-05T21:57:45.059Z,71.00
2022-11-05T22:00:13.594Z,70.40
2022-11-05T22:02:41.678Z,70.00
2022-11-05T22:05:10.062Z,70.10
2022-11-05T22:07:38.709Z,70.40
2022-11-05T22:10:10.755Z,70.60
2022-11-05T22:12:44.211Z,71.60
2022-11-05T22:15:12.344Z,70.90
2022-11-05T22:17:43.958Z,70.90
2022-11-05T22:20:14.635Z,71.10
2022-11-05T22:22:42.608Z,72.00
2022-11-05T22:25:10.551Z,71.20
2022-11-05T22:27:38.483Z,71.40
2022-11-05T22:30:08.582Z,71.30
2022-11-05T22:32:36.473Z,71.30
2022-11-05T22:35:04.553Z,71.50
2022-11-05T22:37:32.442Z,71.50
2022-11-05T22:40:00.501Z,71.60
2022-11-05T22:42:28.631Z,71.60
2022-11-05T22:44:58.110Z,71.40
2022-11-05T22:47:27.358Z,71.00
2022-11-05T22:49:55.418Z,70.70
2022-11-05T22:52:23.307Z,70.20
2022-11-05T22:54:51.194Z,70.00
2022-11-05T22:57:19.202Z,70.20
2022-11-05T22:59:47.098Z,70.40
2022-11-05T23:02:15.060Z,70.60
2022-11-05T23:04:44.392Z,70.80
2022-11-05T23:07:29.610Z,70.90
2022-11-05T23:10:15.132Z,70.80
2022-11-05T23:12:44.362Z,71.10
2022-11-05T23:15:34.290Z,71.10
2022-11-05T23:18:20.084Z,71.20
2022-11-05T23:21:06.660Z,71.30
2022-11-05T23:23:52.051Z,71.10
2022-11-05T23:26:37.564Z,70.70
2022-11-05T23:29:05.448Z,70.30
2022-11-05T23:31:50.749Z,70.40
2022-11-05T23:34:18.631Z,70.50
2022-11-05T23:37:05.490Z,70.30
2022-11-05T23:39:37.023Z,70.40
2022-11-05T23:42:26.916Z,70.70
2022-11-05T23:45:14.659Z,70.80
2022-11-05T23:48:00.336Z,70.90
2022-11-05T23:50:28.247Z,70.90
2022-11-05T23:52:57.517Z,71.00
2022-11-05T23:55:25.550Z,71.10
2022-11-05T23:57:53.552Z,71.10
